sensor_id;sensor_type;location;lat;lon;timestamp;P1;durP1;ratioP1;P2;durP2;ratioP2
71351;SDS011;59159;51.652;4.864;2023-07-31T00:00:16;9.27;;;2.80;;
71351;SDS011;59159;51.652;4.864;2023-07-31T00:02:42;8.70;;;2.80;;
71351;SDS011;59159;51.652;4.864;2023-07-31T00:05:09;8.45;;;2.80;;
71351;SDS011;59159;51.652;4.864;2023-07-31T00:07:35;8.20;;;2.90;;
71351;SDS011;59159;51.652;4.864;2023-07-31T00:10:01;8.32;;;3.30;;
71351;SDS011;59159;51.652;4.864;2023-07-31T00:12:27;8.63;;;2.22;;
71351;SDS011;59159;51.652;4.864;2023-07-31T00:14:53;8.70;;;3.28;;
71351;SDS011;59159;51.652;4.864;2023-07-31T00:17:19;11.43;;;2.83;;
71351;SDS011;59159;51.652;4.864;2023-07-31T00:19:45;9.95;;;3.00;;
71351;SDS011;59159;51.652;4.864;2023-07-31T00:22:14;8.23;;;2.65;;
71351;SDS011;59159;51.652;4.864;2023-07-31T00:24:40;8.73;;;2.50;;
71351;SDS011;59159;51.652;4.864;2023-07-31T00:27:06;9.45;;;2.90;;
71351;SDS011;59159;51.652;4.864;2023-07-31T00:29:32;9.52;;;2.70;;
71351;SDS011;59159;51.652;4.864;2023-07-31T00:31:58;8.13;;;2.70;;
71351;SDS011;59159;51.652;4.864;2023-07-31T00:34:23;9.82;;;2.83;;
71351;SDS011;59159;51.652;4.864;2023-07-31T00:36:49;9.90;;;2.72;;
71351;SDS011;59159;51.652;4.864;2023-07-31T00:39:15;10.70;;;3.83;;
71351;SDS011;59159;51.652;4.864;2023-07-31T00:41:41;7.93;;;3.37;;
71351;SDS011;59159;51.652;4.864;2023-07-31T00:44:07;10.65;;;3.20;;
71351;SDS011;59159;51.652;4.864;2023-07-31T00:46:33;8.65;;;2.67;;
71351;SDS011;59159;51.652;4.864;2023-07-31T00:48:59;8.13;;;3.37;;
71351;SDS011;59159;51.652;4.864;2023-07-31T00:51:26;8.70;;;2.65;;
71351;SDS011;59159;51.652;4.864;2023-07-31T00:53:52;10.63;;;2.85;;
71351;SDS011;59159;51.652;4.864;2023-07-31T00:56:19;9.43;;;2.50;;
71351;SDS011;59159;51.652;4.864;2023-07-31T00:58:45;9.85;;;2.72;;
71351;SDS011;59159;51.652;4.864;2023-07-31T01:01:11;14.88;;;3.15;;
71351;SDS011;59159;51.652;4.864;2023-07-31T01:03:37;9.68;;;2.55;;
71351;SDS011;59159;51.652;4.864;2023-07-31T01:11:02;9.70;;;2.72;;
71351;SDS011;59159;51.652;4.864;2023-07-31T01:13:31;8.83;;;2.47;;
71351;SDS011;59159;51.652;4.864;2023-07-31T01:15:57;9.20;;;2.80;;
71351;SDS011;59159;51.652;4.864;2023-07-31T01:18:23;10.80;;;2.50;;
71351;SDS011;59159;51.652;4.864;2023-07-31T01:20:53;12.27;;;4.00;;
71351;SDS011;59159;51.652;4.864;2023-07-31T01:23:22;11.35;;;3.72;;
71351;SDS011;59159;51.652;4.864;2023-07-31T01:31:14;8.80;;;2.60;;
71351;SDS011;59159;51.652;4.864;2023-07-31T01:33:42;8.15;;;2.53;;
71351;SDS011;59159;51.652;4.864;2023-07-31T01:36:08;9.32;;;2.90;;
71351;SDS011;59159;51.652;4.864;2023-07-31T01:38:34;8.77;;;2.50;;
71351;SDS011;59159;51.652;4.864;2023-07-31T01:41:00;9.85;;;3.10;;
71351;SDS011;59159;51.652;4.864;2023-07-31T01:43:26;9.52;;;2.53;;
71351;SDS011;59159;51.652;4.864;2023-07-31T01:45:52;10.57;;;3.43;;
71351;SDS011;59159;51.652;4.864;2023-07-31T01:48:19;9.43;;;3.05;;
71351;SDS011;59159;51.652;4.864;2023-07-31T01:50:45;12.80;;;3.17;;
71351;SDS011;59159;51.652;4.864;2023-07-31T01:53:11;10.02;;;3.38;;
71351;SDS011;59159;51.652;4.864;2023-07-31T01:55:39;8.77;;;2.43;;
71351;SDS011;59159;51.652;4.864;2023-07-31T01:58:05;9.07;;;3.22;;
71351;SDS011;59159;51.652;4.864;2023-07-31T02:00:31;9.23;;;2.80;;
71351;SDS011;59159;51.652;4.864;2023-07-31T02:02:59;9.37;;;2.50;;
71351;SDS011;59159;51.652;4.864;2023-07-31T02:05:25;10.70;;;4.05;;
71351;SDS011;59159;51.652;4.864;2023-07-31T02:07:51;13.27;;;3.38;;
71351;SDS011;59159;51.652;4.864;2023-07-31T02:10:17;9.70;;;3.03;;
71351;SDS011;59159;51.652;4.864;2023-07-31T02:12:43;9.85;;;3.17;;
71351;SDS011;59159;51.652;4.864;2023-07-31T02:15:09;8.38;;;2.85;;
71351;SDS011;59159;51.652;4.864;2023-07-31T02:17:35;11.20;;;3.33;;
71351;SDS011;59159;51.652;4.864;2023-07-31T02:20:01;7.97;;;2.67;;
71351;SDS011;59159;51.652;4.864;2023-07-31T02:22:27;9.32;;;2.55;;
71351;SDS011;59159;51.652;4.864;2023-07-31T02:24:53;7.25;;;2.67;;
71351;SDS011;59159;51.652;4.864;2023-07-31T02:27:19;10.80;;;3.27;;
71351;SDS011;59159;51.652;4.864;2023-07-31T02:29:49;10.20;;;3.17;;
71351;SDS011;59159;51.652;4.864;2023-07-31T02:32:15;7.65;;;2.50;;
71351;SDS011;59159;51.652;4.864;2023-07-31T02:34:40;10.47;;;3.23;;
71351;SDS011;59159;51.652;4.864;2023-07-31T02:37:06;9.10;;;3.03;;
71351;SDS011;59159;51.652;4.864;2023-07-31T02:39:32;8.60;;;2.65;;
71351;SDS011;59159;51.652;4.864;2023-07-31T02:41:59;10.75;;;2.88;;
71351;SDS011;59159;51.652;4.864;2023-07-31T02:44:25;8.97;;;2.70;;
71351;SDS011;59159;51.652;4.864;2023-07-31T02:46:52;10.60;;;3.40;;
71351;SDS011;59159;51.652;4.864;2023-07-31T02:49:18;8.93;;;3.20;;
71351;SDS011;59159;51.652;4.864;2023-07-31T02:51:44;9.53;;;3.07;;
71351;SDS011;59159;51.652;4.864;2023-07-31T02:54:09;11.75;;;3.40;;
71351;SDS011;59159;51.652;4.864;2023-07-31T02:56:35;11.30;;;2.92;;
71351;SDS011;59159;51.652;4.864;2023-07-31T02:59:01;10.63;;;2.97;;
71351;SDS011;59159;51.652;4.864;2023-07-31T03:01:28;8.90;;;2.70;;
71351;SDS011;59159;51.652;4.864;2023-07-31T03:03:53;8.15;;;3.38;;
71351;SDS011;59159;51.652;4.864;2023-07-31T03:06:19;9.90;;;2.85;;
71351;SDS011;59159;51.652;4.864;2023-07-31T03:08:45;9.03;;;2.40;;
71351;SDS011;59159;51.652;4.864;2023-07-31T03:11:11;9.07;;;3.40;;
71351;SDS011;59159;51.652;4.864;2023-07-31T03:13:37;10.30;;;2.88;;
71351;SDS011;59159;51.652;4.864;2023-07-31T03:16:03;8.30;;;2.90;;
71351;SDS011;59159;51.652;4.864;2023-07-31T03:18:29;10.93;;;2.72;;
71351;SDS011;59159;51.652;4.864;2023-07-31T03:20:55;8.95;;;3.05;;
71351;SDS011;59159;51.652;4.864;2023-07-31T03:23:21;12.43;;;3.20;;
71351;SDS011;59159;51.652;4.864;2023-07-31T03:25:57;9.82;;;2.90;;
71351;SDS011;59159;51.652;4.864;2023-07-31T03:28:23;9.15;;;2.45;;
71351;SDS011;59159;51.652;4.864;2023-07-31T03:30:49;10.20;;;3.45;;
71351;SDS011;59159;51.652;4.864;2023-07-31T03:33:15;9.03;;;3.07;;
71351;SDS011;59159;51.652;4.864;2023-07-31T03:35:41;9.00;;;2.95;;
71351;SDS011;59159;51.652;4.864;2023-07-31T03:38:07;10.18;;;2.78;;
71351;SDS011;59159;51.652;4.864;2023-07-31T03:40:33;7.73;;;2.30;;
71351;SDS011;59159;51.652;4.864;2023-07-31T03:42:59;9.32;;;2.78;;
71351;SDS011;59159;51.652;4.864;2023-07-31T03:45:25;11.90;;;3.03;;
71351;SDS011;59159;51.652;4.864;2023-07-31T03:47:51;8.57;;;2.73;;
71351;SDS011;59159;51.652;4.864;2023-07-31T03:50:19;10.93;;;3.38;;
71351;SDS011;59159;51.652;4.864;2023-07-31T03:52:45;8.88;;;2.70;;
71351;SDS011;59159;51.652;4.864;2023-07-31T03:55:11;8.98;;;3.08;;
71351;SDS011;59159;51.652;4.864;2023-07-31T03:57:37;8.67;;;2.90;;
71351;SDS011;59159;51.652;4.864;2023-07-31T04:00:03;12.50;;;3.22;;
71351;SDS011;59159;51.652;4.864;2023-07-31T04:02:33;10.52;;;3.40;;
71351;SDS011;59159;51.652;4.864;2023-07-31T04:04:59;12.90;;;3.20;;
71351;SDS011;59159;51.652;4.864;2023-07-31T04:07:25;10.02;;;3.30;;
71351;SDS011;59159;51.652;4.864;2023-07-31T04:09:51;10.23;;;3.17;;
71351;SDS011;59159;51.652;4.864;2023-07-31T04:12:17;17.30;;;3.37;;
71351;SDS011;59159;51.652;4.864;2023-07-31T04:14:43;9.43;;;3.17;;
71351;SDS011;59159;51.652;4.864;2023-07-31T04:17:09;11.27;;;3.45;;
71351;SDS011;59159;51.652;4.864;2023-07-31T04:19:34;8.80;;;2.83;;
71351;SDS011;59159;51.652;4.864;2023-07-31T04:22:00;9.47;;;3.07;;
71351;SDS011;59159;51.652;4.864;2023-07-31T04:24:26;9.13;;;2.40;;
71351;SDS011;59159;51.652;4.864;2023-07-31T04:26:53;11.63;;;4.03;;
71351;SDS011;59159;51.652;4.864;2023-07-31T04:29:19;10.60;;;3.27;;
71351;SDS011;59159;51.652;4.864;2023-07-31T04:31:45;14.02;;;4.10;;
71351;SDS011;59159;51.652;4.864;2023-07-31T04:34:11;9.88;;;2.75;;
71351;SDS011;59159;51.652;4.864;2023-07-31T04:36:37;9.03;;;2.83;;
71351;SDS011;59159;51.652;4.864;2023-07-31T04:39:03;12.18;;;3.10;;
71351;SDS011;59159;51.652;4.864;2023-07-31T04:41:29;13.15;;;3.50;;
71351;SDS011;59159;51.652;4.864;2023-07-31T04:43:55;9.13;;;2.83;;
71351;SDS011;59159;51.652;4.864;2023-07-31T04:46:21;7.80;;;2.60;;
71351;SDS011;59159;51.652;4.864;2023-07-31T04:48:47;9.88;;;2.53;;
71351;SDS011;59159;51.652;4.864;2023-07-31T04:51:13;7.07;;;2.15;;
71351;SDS011;59159;51.652;4.864;2023-07-31T04:53:39;9.60;;;3.40;;
71351;SDS011;59159;51.652;4.864;2023-07-31T04:56:05;10.40;;;2.70;;
71351;SDS011;59159;51.652;4.864;2023-07-31T04:58:31;7.95;;;2.50;;
71351;SDS011;59159;51.652;4.864;2023-07-31T05:00:57;9.77;;;3.07;;
71351;SDS011;59159;51.652;4.864;2023-07-31T05:03:23;8.25;;;2.50;;
71351;SDS011;59159;51.652;4.864;2023-07-31T05:05:49;11.00;;;3.30;;
71351;SDS011;59159;51.652;4.864;2023-07-31T05:08:16;12.15;;;3.10;;
71351;SDS011;59159;51.652;4.864;2023-07-31T05:10:45;8.43;;;2.83;;
71351;SDS011;59159;51.652;4.864;2023-07-31T05:13:11;8.40;;;2.50;;
71351;SDS011;59159;51.652;4.864;2023-07-31T05:15:38;9.25;;;2.53;;
71351;SDS011;59159;51.652;4.864;2023-07-31T05:18:04;9.20;;;3.07;;
71351;SDS011;59159;51.652;4.864;2023-07-31T05:20:30;8.13;;;2.67;;
71351;SDS011;59159;51.652;4.864;2023-07-31T05:22:56;8.75;;;3.13;;
71351;SDS011;59159;51.652;4.864;2023-07-31T05:25:21;10.17;;;2.23;;
71351;SDS011;59159;51.652;4.864;2023-07-31T05:27:47;8.88;;;2.30;;
71351;SDS011;59159;51.652;4.864;2023-07-31T05:30:13;9.57;;;2.75;;
71351;SDS011;59159;51.652;4.864;2023-07-31T05:32:39;8.75;;;2.63;;
71351;SDS011;59159;51.652;4.864;2023-07-31T05:35:05;10.37;;;3.23;;
71351;SDS011;59159;51.652;4.864;2023-07-31T05:37:32;7.93;;;2.40;;
71351;SDS011;59159;51.652;4.864;2023-07-31T05:39:57;8.43;;;2.42;;
71351;SDS011;59159;51.652;4.864;2023-07-31T05:42:23;7.43;;;2.50;;
71351;SDS011;59159;51.652;4.864;2023-07-31T05:44:49;10.98;;;3.30;;
71351;SDS011;59159;51.652;4.864;2023-07-31T05:47:15;8.20;;;2.47;;
71351;SDS011;59159;51.652;4.864;2023-07-31T05:49:42;8.47;;;2.50;;
71351;SDS011;59159;51.652;4.864;2023-07-31T05:52:08;7.72;;;2.17;;
71351;SDS011;59159;51.652;4.864;2023-07-31T05:54:34;7.80;;;2.60;;
71351;SDS011;59159;51.652;4.864;2023-07-31T05:56:59;6.93;;;2.25;;
71351;SDS011;59159;51.652;4.864;2023-07-31T05:59:25;8.03;;;2.63;;
71351;SDS011;59159;51.652;4.864;2023-07-31T06:01:52;8.52;;;2.60;;
71351;SDS011;59159;51.652;4.864;2023-07-31T06:04:18;9.50;;;2.40;;
71351;SDS011;59159;51.652;4.864;2023-07-31T06:06:44;7.47;;;2.27;;
71351;SDS011;59159;51.652;4.864;2023-07-31T06:09:10;9.55;;;2.10;;
71351;SDS011;59159;51.652;4.864;2023-07-31T06:11:36;6.38;;;2.03;;
71351;SDS011;59159;51.652;4.864;2023-07-31T06:14:02;7.43;;;2.30;;
71351;SDS011;59159;51.652;4.864;2023-07-31T06:16:28;7.72;;;2.13;;
71351;SDS011;59159;51.652;4.864;2023-07-31T06:18:54;6.70;;;2.10;;
71351;SDS011;59159;51.652;4.864;2023-07-31T06:21:20;7.10;;;2.50;;
71351;SDS011;59159;51.652;4.864;2023-07-31T06:23:46;7.53;;;2.53;;
71351;SDS011;59159;51.652;4.864;2023-07-31T06:26:12;6.63;;;1.88;;
71351;SDS011;59159;51.652;4.864;2023-07-31T06:28:39;6.72;;;2.20;;
71351;SDS011;59159;51.652;4.864;2023-07-31T06:31:05;8.27;;;2.30;;
71351;SDS011;59159;51.652;4.864;2023-07-31T06:33:31;6.20;;;1.60;;
71351;SDS011;59159;51.652;4.864;2023-07-31T06:35:57;6.95;;;2.05;;
71351;SDS011;59159;51.652;4.864;2023-07-31T06:38:24;7.00;;;1.97;;
71351;SDS011;59159;51.652;4.864;2023-07-31T06:40:50;6.22;;;1.90;;
71351;SDS011;59159;51.652;4.864;2023-07-31T06:43:16;6.32;;;2.20;;
71351;SDS011;59159;51.652;4.864;2023-07-31T06:45:42;5.55;;;1.95;;
71351;SDS011;59159;51.652;4.864;2023-07-31T06:48:09;7.53;;;2.20;;
71351;SDS011;59159;51.652;4.864;2023-07-31T06:50:35;5.80;;;1.83;;
71351;SDS011;59159;51.652;4.864;2023-07-31T06:53:02;6.15;;;1.92;;
71351;SDS011;59159;51.652;4.864;2023-07-31T06:55:28;5.97;;;1.90;;
71351;SDS011;59159;51.652;4.864;2023-07-31T06:57:54;8.48;;;2.28;;
71351;SDS011;59159;51.652;4.864;2023-07-31T07:00:21;6.72;;;1.98;;
71351;SDS011;59159;51.652;4.864;2023-07-31T07:02:47;7.10;;;1.97;;
71351;SDS011;59159;51.652;4.864;2023-07-31T07:05:14;5.55;;;1.95;;
71351;SDS011;59159;51.652;4.864;2023-07-31T07:07:40;5.65;;;2.00;;
71351;SDS011;59159;51.652;4.864;2023-07-31T07:10:06;6.30;;;1.80;;
71351;SDS011;59159;51.652;4.864;2023-07-31T07:12:33;6.03;;;1.93;;
71351;SDS011;59159;51.652;4.864;2023-07-31T07:15:00;5.90;;;2.03;;
71351;SDS011;59159;51.652;4.864;2023-07-31T07:17:27;6.35;;;1.63;;
71351;SDS011;59159;51.652;4.864;2023-07-31T07:19:53;5.60;;;2.03;;
71351;SDS011;59159;51.652;4.864;2023-07-31T07:22:20;5.70;;;1.83;;
71351;SDS011;59159;51.652;4.864;2023-07-31T07:24:46;5.35;;;1.70;;
71351;SDS011;59159;51.652;4.864;2023-07-31T07:27:12;4.50;;;1.47;;
71351;SDS011;59159;51.652;4.864;2023-07-31T07:29:39;5.80;;;1.67;;
71351;SDS011;59159;51.652;4.864;2023-07-31T07:32:05;5.07;;;1.60;;
71351;SDS011;59159;51.652;4.864;2023-07-31T07:34:31;5.97;;;1.80;;
71351;SDS011;59159;51.652;4.864;2023-07-31T07:36:57;4.63;;;1.53;;
71351;SDS011;59159;51.652;4.864;2023-07-31T07:39:23;5.97;;;1.98;;
71351;SDS011;59159;51.652;4.864;2023-07-31T07:41:50;7.15;;;1.45;;
71351;SDS011;59159;51.652;4.864;2023-07-31T07:44:16;6.00;;;2.40;;
71351;SDS011;59159;51.652;4.864;2023-07-31T07:46:42;6.78;;;1.70;;
71351;SDS011;59159;51.652;4.864;2023-07-31T07:49:08;5.10;;;1.55;;
71351;SDS011;59159;51.652;4.864;2023-07-31T07:51:34;5.33;;;1.43;;
71351;SDS011;59159;51.652;4.864;2023-07-31T07:54:00;6.63;;;1.95;;
71351;SDS011;59159;51.652;4.864;2023-07-31T07:56:26;4.65;;;1.60;;
71351;SDS011;59159;51.652;4.864;2023-07-31T07:58:52;5.50;;;1.52;;
71351;SDS011;59159;51.652;4.864;2023-07-31T08:01:18;6.57;;;1.73;;
71351;SDS011;59159;51.652;4.864;2023-07-31T08:03:45;5.53;;;1.65;;
71351;SDS011;59159;51.652;4.864;2023-07-31T08:06:11;5.85;;;1.90;;
71351;SDS011;59159;51.652;4.864;2023-07-31T08:08:37;6.10;;;1.80;;
71351;SDS011;59159;51.652;4.864;2023-07-31T08:11:03;5.68;;;1.63;;
71351;SDS011;59159;51.652;4.864;2023-07-31T08:13:29;5.40;;;1.60;;
71351;SDS011;59159;51.652;4.864;2023-07-31T08:15:55;5.87;;;1.90;;
71351;SDS011;59159;51.652;4.864;2023-07-31T08:18:21;6.38;;;1.70;;
71351;SDS011;59159;51.652;4.864;2023-07-31T08:20:47;5.10;;;1.50;;
71351;SDS011;59159;51.652;4.864;2023-07-31T08:23:14;5.57;;;1.70;;
71351;SDS011;59159;51.652;4.864;2023-07-31T08:25:40;4.87;;;1.60;;
71351;SDS011;59159;51.652;4.864;2023-07-31T08:28:06;5.05;;;1.50;;
71351;SDS011;59159;51.652;4.864;2023-07-31T08:30:32;5.90;;;2.00;;
71351;SDS011;59159;51.652;4.864;2023-07-31T08:32:58;5.33;;;1.80;;
71351;SDS011;59159;51.652;4.864;2023-07-31T08:35:25;4.65;;;1.40;;
71351;SDS011;59159;51.652;4.864;2023-07-31T08:37:53;5.95;;;2.13;;
71351;SDS011;59159;51.652;4.864;2023-07-31T08:40:19;7.17;;;2.10;;
71351;SDS011;59159;51.652;4.864;2023-07-31T08:42:47;6.35;;;1.85;;
71351;SDS011;59159;51.652;4.864;2023-07-31T08:45:17;5.28;;;1.80;;
71351;SDS011;59159;51.652;4.864;2023-07-31T08:47:47;5.88;;;2.00;;
71351;SDS011;59159;51.652;4.864;2023-07-31T08:50:13;5.37;;;1.70;;
71351;SDS011;59159;51.652;4.864;2023-07-31T08:52:39;6.00;;;2.10;;
71351;SDS011;59159;51.652;4.864;2023-07-31T08:55:09;7.47;;;2.28;;
71351;SDS011;59159;51.652;4.864;2023-07-31T08:57:36;5.33;;;2.03;;
71351;SDS011;59159;51.652;4.864;2023-07-31T09:00:03;6.38;;;1.98;;
71351;SDS011;59159;51.652;4.864;2023-07-31T09:02:34;6.32;;;2.40;;
71351;SDS011;59159;51.652;4.864;2023-07-31T09:05:04;5.27;;;1.87;;
71351;SDS011;59159;51.652;4.864;2023-07-31T09:07:31;6.97;;;2.00;;
71351;SDS011;59159;51.652;4.864;2023-07-31T09:09:57;5.50;;;1.95;;
71351;SDS011;59159;51.652;4.864;2023-07-31T09:12:23;5.85;;;2.22;;
71351;SDS011;59159;51.652;4.864;2023-07-31T09:14:50;6.50;;;2.30;;
71351;SDS011;59159;51.652;4.864;2023-07-31T09:17:28;4.65;;;1.63;;
71351;SDS011;59159;51.652;4.864;2023-07-31T09:19:54;7.32;;;2.00;;
71351;SDS011;59159;51.652;4.864;2023-07-31T09:22:34;7.07;;;2.73;;
71351;SDS011;59159;51.652;4.864;2023-07-31T09:25:16;5.15;;;1.83;;
71351;SDS011;59159;51.652;4.864;2023-07-31T09:27:45;6.28;;;2.10;;
71351;SDS011;59159;51.652;4.864;2023-07-31T09:30:12;5.50;;;2.10;;
71351;SDS011;59159;51.652;4.864;2023-07-31T09:32:38;5.30;;;2.08;;
71351;SDS011;59159;51.652;4.864;2023-07-31T09:35:18;5.25;;;2.10;;
71351;SDS011;59159;51.652;4.864;2023-07-31T09:37:52;5.65;;;2.08;;
71351;SDS011;59159;51.652;4.864;2023-07-31T09:40:30;6.47;;;2.73;;
71351;SDS011;59159;51.652;4.864;2023-07-31T09:42:57;6.70;;;2.03;;
71351;SDS011;59159;51.652;4.864;2023-07-31T09:45:24;5.20;;;2.20;;
71351;SDS011;59159;51.652;4.864;2023-07-31T09:47:50;6.80;;;1.70;;
71351;SDS011;59159;51.652;4.864;2023-07-31T09:50:16;6.57;;;1.92;;
71351;SDS011;59159;51.652;4.864;2023-07-31T09:52:42;5.35;;;2.05;;
71351;SDS011;59159;51.652;4.864;2023-07-31T09:55:09;6.10;;;1.90;;
71351;SDS011;59159;51.652;4.864;2023-07-31T09:57:39;6.55;;;1.90;;
71351;SDS011;59159;51.652;4.864;2023-07-31T10:00:07;6.28;;;1.98;;
71351;SDS011;59159;51.652;4.864;2023-07-31T10:02:34;6.20;;;1.98;;
71351;SDS011;59159;51.652;4.864;2023-07-31T10:05:01;5.53;;;1.63;;
71351;SDS011;59159;51.652;4.864;2023-07-31T10:07:28;6.03;;;2.33;;
71351;SDS011;59159;51.652;4.864;2023-07-31T10:09:55;5.57;;;1.65;;
71351;SDS011;59159;51.652;4.864;2023-07-31T10:12:22;5.23;;;1.73;;
71351;SDS011;59159;51.652;4.864;2023-07-31T10:14:53;5.22;;;1.73;;
71351;SDS011;59159;51.652;4.864;2023-07-31T10:17:20;5.00;;;1.70;;
71351;SDS011;59159;51.652;4.864;2023-07-31T10:19:47;6.30;;;2.10;;
71351;SDS011;59159;51.652;4.864;2023-07-31T10:22:14;6.55;;;1.95;;
71351;SDS011;59159;51.652;4.864;2023-07-31T10:24:41;6.00;;;1.95;;
71351;SDS011;59159;51.652;4.864;2023-07-31T10:27:08;6.05;;;1.80;;
71351;SDS011;59159;51.652;4.864;2023-07-31T10:29:35;8.07;;;2.93;;
71351;SDS011;59159;51.652;4.864;2023-07-31T10:32:02;5.65;;;1.80;;
71351;SDS011;59159;51.652;4.864;2023-07-31T10:34:31;5.15;;;2.05;;
71351;SDS011;59159;51.652;4.864;2023-07-31T10:39:42;5.55;;;1.70;;
71351;SDS011;59159;51.652;4.864;2023-07-31T10:42:11;6.50;;;1.92;;
71351;SDS011;59159;51.652;4.864;2023-07-31T10:44:38;5.00;;;1.93;;
71351;SDS011;59159;51.652;4.864;2023-07-31T10:47:06;5.40;;;2.05;;
71351;SDS011;59159;51.652;4.864;2023-07-31T10:49:32;5.82;;;2.10;;
71351;SDS011;59159;51.652;4.864;2023-07-31T10:51:58;4.80;;;1.75;;
71351;SDS011;59159;51.652;4.864;2023-07-31T10:54:24;5.33;;;1.83;;
71351;SDS011;59159;51.652;4.864;2023-07-31T10:56:50;6.90;;;2.00;;
71351;SDS011;59159;51.652;4.864;2023-07-31T10:59:17;6.95;;;1.83;;
71351;SDS011;59159;51.652;4.864;2023-07-31T11:04:21;5.63;;;1.90;;
71351;SDS011;59159;51.652;4.864;2023-07-31T11:06:58;5.28;;;1.88;;
71351;SDS011;59159;51.652;4.864;2023-07-31T11:09:27;5.23;;;1.63;;
71351;SDS011;59159;51.652;4.864;2023-07-31T11:11:54;4.90;;;1.90;;
71351;SDS011;59159;51.652;4.864;2023-07-31T11:14:21;4.80;;;1.73;;
71351;SDS011;59159;51.652;4.864;2023-07-31T11:16:49;5.82;;;1.90;;
71351;SDS011;59159;51.652;4.864;2023-07-31T11:19:21;6.40;;;1.70;;
71351;SDS011;59159;51.652;4.864;2023-07-31T11:21:47;5.20;;;1.85;;
71351;SDS011;59159;51.652;4.864;2023-07-31T11:24:13;4.43;;;1.60;;
71351;SDS011;59159;51.652;4.864;2023-07-31T11:26:47;4.80;;;1.47;;
71351;SDS011;59159;51.652;4.864;2023-07-31T11:29:13;4.78;;;1.60;;
71351;SDS011;59159;51.652;4.864;2023-07-31T11:31:42;4.55;;;1.48;;
71351;SDS011;59159;51.652;4.864;2023-07-31T11:34:08;5.37;;;2.03;;
71351;SDS011;59159;51.652;4.864;2023-07-31T11:36:34;5.88;;;1.83;;
71351;SDS011;59159;51.652;4.864;2023-07-31T11:39:10;5.25;;;1.85;;
71351;SDS011;59159;51.652;4.864;2023-07-31T11:41:36;4.97;;;2.13;;
71351;SDS011;59159;51.652;4.864;2023-07-31T11:44:06;4.87;;;1.87;;
71351;SDS011;59159;51.652;4.864;2023-07-31T11:46:32;4.35;;;1.80;;
71351;SDS011;59159;51.652;4.864;2023-07-31T11:48:59;5.25;;;1.90;;
71351;SDS011;59159;51.652;4.864;2023-07-31T11:51:25;5.43;;;1.83;;
71351;SDS011;59159;51.652;4.864;2023-07-31T11:53:52;4.95;;;1.90;;
71351;SDS011;59159;51.652;4.864;2023-07-31T11:56:19;4.80;;;2.03;;
71351;SDS011;59159;51.652;4.864;2023-07-31T11:58:46;5.00;;;1.97;;
71351;SDS011;59159;51.652;4.864;2023-07-31T12:01:14;4.85;;;1.80;;
71351;SDS011;59159;51.652;4.864;2023-07-31T12:03:40;4.55;;;1.65;;
71351;SDS011;59159;51.652;4.864;2023-07-31T12:06:07;6.38;;;2.30;;
71351;SDS011;59159;51.652;4.864;2023-07-31T12:08:33;5.33;;;2.07;;
71351;SDS011;59159;51.652;4.864;2023-07-31T12:11:03;6.35;;;2.03;;
71351;SDS011;59159;51.652;4.864;2023-07-31T12:13:30;5.57;;;1.95;;
71351;SDS011;59159;51.652;4.864;2023-07-31T12:15:57;4.63;;;1.70;;
71351;SDS011;59159;51.652;4.864;2023-07-31T12:18:24;4.72;;;1.83;;
71351;SDS011;59159;51.652;4.864;2023-07-31T12:20:57;5.88;;;1.90;;
71351;SDS011;59159;51.652;4.864;2023-07-31T12:23:27;6.00;;;2.20;;
71351;SDS011;59159;51.652;4.864;2023-07-31T12:26:03;5.15;;;1.92;;
71351;SDS011;59159;51.652;4.864;2023-07-31T12:28:30;5.32;;;2.00;;
71351;SDS011;59159;51.652;4.864;2023-07-31T12:30:59;5.68;;;2.30;;
71351;SDS011;59159;51.652;4.864;2023-07-31T12:33:30;5.57;;;2.33;;
71351;SDS011;59159;51.652;4.864;2023-07-31T12:35:57;6.22;;;2.25;;
71351;SDS011;59159;51.652;4.864;2023-07-31T12:38:23;5.25;;;2.20;;
71351;SDS011;59159;51.652;4.864;2023-07-31T12:40:49;5.23;;;2.23;;
71351;SDS011;59159;51.652;4.864;2023-07-31T12:43:15;6.38;;;1.95;;
71351;SDS011;59159;51.652;4.864;2023-07-31T12:45:41;6.32;;;2.08;;
71351;SDS011;59159;51.652;4.864;2023-07-31T12:48:07;5.93;;;2.40;;
71351;SDS011;59159;51.652;4.864;2023-07-31T12:50:33;5.80;;;2.35;;
71351;SDS011;59159;51.652;4.864;2023-07-31T12:53:01;5.50;;;2.20;;
71351;SDS011;59159;51.652;4.864;2023-07-31T12:55:28;5.35;;;2.00;;
71351;SDS011;59159;51.652;4.864;2023-07-31T12:57:55;6.63;;;2.07;;
71351;SDS011;59159;51.652;4.864;2023-07-31T13:00:21;6.07;;;2.45;;
71351;SDS011;59159;51.652;4.864;2023-07-31T13:02:47;5.47;;;2.08;;
71351;SDS011;59159;51.652;4.864;2023-07-31T13:05:14;5.37;;;1.80;;
71351;SDS011;59159;51.652;4.864;2023-07-31T13:07:40;7.05;;;2.30;;
71351;SDS011;59159;51.652;4.864;2023-07-31T13:10:06;5.88;;;2.40;;
71351;SDS011;59159;51.652;4.864;2023-07-31T13:12:33;6.07;;;2.00;;
71351;SDS011;59159;51.652;4.864;2023-07-31T13:14:59;6.55;;;2.42;;
71351;SDS011;59159;51.652;4.864;2023-07-31T13:17:25;5.70;;;2.03;;
71351;SDS011;59159;51.652;4.864;2023-07-31T13:19:51;6.43;;;2.22;;
71351;SDS011;59159;51.652;4.864;2023-07-31T13:22:17;5.63;;;2.10;;
71351;SDS011;59159;51.652;4.864;2023-07-31T13:24:43;5.82;;;2.35;;
71351;SDS011;59159;51.652;4.864;2023-07-31T13:27:09;7.72;;;2.67;;
71351;SDS011;59159;51.652;4.864;2023-07-31T13:29:35;6.13;;;2.33;;
71351;SDS011;59159;51.652;4.864;2023-07-31T13:32:02;7.25;;;2.55;;
71351;SDS011;59159;51.652;4.864;2023-07-31T13:34:28;5.55;;;2.33;;
71351;SDS011;59159;51.652;4.864;2023-07-31T13:36:54;5.93;;;2.40;;
71351;SDS011;59159;51.652;4.864;2023-07-31T13:39:21;5.72;;;2.10;;
71351;SDS011;59159;51.652;4.864;2023-07-31T13:41:47;7.50;;;2.13;;
71351;SDS011;59159;51.652;4.864;2023-07-31T13:44:13;6.25;;;2.47;;
71351;SDS011;59159;51.652;4.864;2023-07-31T13:46:39;6.70;;;2.20;;
71351;SDS011;59159;51.652;4.864;2023-07-31T13:49:05;6.85;;;3.33;;
71351;SDS011;59159;51.652;4.864;2023-07-31T13:51:31;7.63;;;3.60;;
71351;SDS011;59159;51.652;4.864;2023-07-31T13:53:57;7.63;;;2.73;;
71351;SDS011;59159;51.652;4.864;2023-07-31T13:56:23;6.43;;;2.85;;
71351;SDS011;59159;51.652;4.864;2023-07-31T13:58:49;5.75;;;2.40;;
71351;SDS011;59159;51.652;4.864;2023-07-31T14:01:16;7.00;;;2.20;;
71351;SDS011;59159;51.652;4.864;2023-07-31T14:03:41;6.25;;;2.13;;
71351;SDS011;59159;51.652;4.864;2023-07-31T14:06:07;5.78;;;2.65;;
71351;SDS011;59159;51.652;4.864;2023-07-31T14:08:34;6.25;;;2.45;;
71351;SDS011;59159;51.652;4.864;2023-07-31T14:11:00;5.20;;;2.07;;
71351;SDS011;59159;51.652;4.864;2023-07-31T14:13:26;5.95;;;2.42;;
71351;SDS011;59159;51.652;4.864;2023-07-31T14:15:52;8.05;;;2.78;;
71351;SDS011;59159;51.652;4.864;2023-07-31T14:18:18;6.33;;;2.53;;
71351;SDS011;59159;51.652;4.864;2023-07-31T14:20:44;7.35;;;2.70;;
71351;SDS011;59159;51.652;4.864;2023-07-31T14:23:10;6.60;;;2.10;;
71351;SDS011;59159;51.652;4.864;2023-07-31T14:25:36;5.67;;;2.30;;
71351;SDS011;59159;51.652;4.864;2023-07-31T14:28:02;6.57;;;2.47;;
71351;SDS011;59159;51.652;4.864;2023-07-31T14:30:28;6.75;;;2.70;;
71351;SDS011;59159;51.652;4.864;2023-07-31T14:32:54;6.05;;;2.20;;
71351;SDS011;59159;51.652;4.864;2023-07-31T14:35:20;6.57;;;2.33;;
71351;SDS011;59159;51.652;4.864;2023-07-31T14:37:46;6.55;;;2.13;;
71351;SDS011;59159;51.652;4.864;2023-07-31T14:40:12;6.30;;;2.33;;
71351;SDS011;59159;51.652;4.864;2023-07-31T14:42:39;7.20;;;2.27;;
71351;SDS011;59159;51.652;4.864;2023-07-31T14:45:05;5.65;;;2.10;;
71351;SDS011;59159;51.652;4.864;2023-07-31T14:47:32;6.00;;;2.55;;
71351;SDS011;59159;51.652;4.864;2023-07-31T14:49:58;6.67;;;2.13;;
71351;SDS011;59159;51.652;4.864;2023-07-31T14:52:24;5.70;;;2.38;;
71351;SDS011;59159;51.652;4.864;2023-07-31T14:54:50;5.70;;;2.00;;
71351;SDS011;59159;51.652;4.864;2023-07-31T14:57:16;6.22;;;2.20;;